Enter the Airport ICAO Code

Search by Airport or City

Current Weather

LEST | Santiago de Compostela Airport

Santiago de Compostela, Galicia, Spain

Last Update 16 Minutes Ago

Sky with Few Clouds

Temperature of 20 ºC

Moderate Winds from NorthEast

Temperature

20 ºC

Dew Point Temperature

11 ºC

Relative Humidity

56.33 %

Wind Direction

NorthEast (050º, Ranging from 020º to 100º)

Wind Velocity

22 km/h (12 kt)

Gusts

None

Visibility

Greater than 10 Kilometers

Sea Level Pressure

1025 hPa (Hectopascals)

Layers of Clouds

5% to 30% of Sky Covered from 1219 mts (4000 ft) Above Ground Level.

METAR LEST 211400Z 05012KT 020V100 9999 FEW040 20/11 Q1025 NOSIG

Weather Forecast

LEST | Santiago de Compostela Airport

Santiago de Compostela, Galicia, Spain

Forecast valid for the next 22 Hours

From now on it is expected:

Sky with Few Clouds

Light to Moderate Winds from NorthEast

From now on it is expected 4 hours with intermittent periods of:

Moderate Winds from NorthEast with Gusts

In 13 hours it is expected the begining of 4 hours with intermittent periods of:

Fog Banks

Maximum Temperature

21 ºC in 1 Hour

Minimum Temperature

11 ºC in 15 Hours

TAF LEST 211100Z 2112/2212 05009KT 9999 FEW020 TX21/2115Z TN11/2205Z PROB30 TEMPO 2112/2118 03015G25KT PROB30 TEMPO 2203/2207 3000 BCFG